< < Back
Terminal Aerodrome Forecast


Current Version              Previous Versions:   1  2  3  4  5  6  7  8  9  

Terminal Aerodrome Forecast

934
FTUS42 KFFC 270500
TAFMCN
TAF
KMCN 270531Z 2706/2806 00000KT P6SM SKC
     FM271800 02006KT P6SM FEW050
     FM280000 00000KT P6SM SKC=

Latest METAR

038
SAUS80 KWBC 281100 RRA
MTRMCN
METAR KMCN 281053Z AUTO 00000KT 10SM CLR 15/15 A3004 RMK AO2 SLP167
T01500150 TSNO


USA.gov is the U.S. government's official web portal to all federal, state and local government web resources and services.